createdAt,value
2022-10-22T00:02:44.004Z,1.30
2022-10-22T00:06:26.070Z,1.20
2022-10-22T00:10:09.418Z,1.33
2022-10-22T00:13:51.644Z,1.80
2022-10-22T00:17:33.346Z,1.60
2022-10-22T00:21:15.238Z,1.40
2022-10-22T00:24:57.204Z,1.20
2022-10-22T00:28:39.494Z,1.63
2022-10-22T00:32:21.277Z,1.40
2022-10-22T00:36:03.140Z,1.20
2022-10-22T00:39:45.006Z,1.60
2022-10-22T00:43:27.689Z,1.40
2022-10-22T00:47:09.489Z,1.90
2022-10-22T00:51:04.143Z,1.40
2022-10-22T00:54:46.096Z,1.30
2022-10-22T00:58:33.314Z,1.33
2022-10-22T01:02:16.106Z,1.10
2022-10-22T01:06:00.477Z,1.00
2022-10-22T01:10:05.897Z,3.07
2022-10-22T01:13:53.433Z,1.00
2022-10-22T01:17:44.454Z,1.07
2022-10-22T01:21:45.455Z,1.03
2022-10-22T01:25:53.952Z,1.30
2022-10-22T01:30:08.946Z,0.83
2022-10-22T01:33:53.265Z,1.10
2022-10-22T01:37:41.337Z,1.13
2022-10-22T01:41:23.689Z,0.90
2022-10-22T01:45:14.004Z,1.07
2022-10-22T01:49:21.934Z,1.05
2022-10-22T01:53:15.320Z,1.10
2022-10-22T01:57:18.266Z,1.03
2022-10-22T02:01:09.729Z,1.33
2022-10-22T02:05:02.333Z,1.17
2022-10-22T02:08:46.930Z,0.73
2022-10-22T02:12:30.957Z,1.17
2022-10-22T02:16:38.202Z,0.60
2022-10-22T02:20:27.272Z,1.17
2022-10-22T02:24:09.218Z,1.10
2022-10-22T02:28:10.277Z,0.60
2022-10-22T02:31:58.203Z,0.70
2022-10-22T02:35:46.800Z,0.80
2022-10-22T02:39:30.168Z,0.80
2022-10-22T02:43:12.029Z,1.23
2022-10-22T02:46:55.560Z,1.47
2022-10-22T02:50:37.502Z,0.83
2022-10-22T02:54:19.196Z,1.10
2022-10-22T02:58:00.908Z,1.03
2022-10-22T03:01:43.836Z,0.90
2022-10-22T03:05:25.544Z,1.13
2022-10-22T03:09:07.344Z,0.90
2022-10-22T03:12:49.173Z,0.80
2022-10-22T03:16:31.250Z,1.27
2022-10-22T03:20:12.979Z,1.43
2022-10-22T03:24:34.820Z,1.07
2022-10-22T03:28:18.284Z,1.13
2022-10-22T03:32:03.995Z,0.90
2022-10-22T03:35:47.901Z,1.23
2022-10-22T03:39:33.171Z,1.20
2022-10-22T03:43:15.409Z,1.13
2022-10-22T03:47:00.122Z,1.63
2022-10-22T03:50:44.302Z,1.37
2022-10-22T03:54:26.135Z,0.80
2022-10-22T03:58:07.908Z,1.83
2022-10-22T04:01:49.597Z,1.80
2022-10-22T04:05:33.981Z,1.30
2022-10-22T04:09:16.797Z,1.60
2022-10-22T04:12:58.632Z,1.70
2022-10-22T04:16:41.571Z,1.27
2022-10-22T04:20:23.772Z,1.60
2022-10-22T04:24:05.743Z,1.60
2022-10-22T04:27:48.462Z,1.67
2022-10-22T04:31:30.134Z,2.10
2022-10-22T04:35:12.151Z,1.20
2022-10-22T04:38:57.599Z,1.37
2022-10-22T04:42:39.615Z,1.80
2022-10-22T04:46:21.554Z,1.90
2022-10-22T04:50:03.662Z,1.70
2022-10-22T04:53:48.046Z,1.80
2022-10-22T04:57:31.192Z,1.63
2022-10-22T05:01:19.446Z,1.40
2022-10-22T05:05:01.738Z,1.60
2022-10-22T05:08:43.756Z,2.53
2022-10-22T05:12:26.075Z,1.50
2022-10-22T05:16:08.114Z,1.70
2022-10-22T05:19:49.985Z,2.03
2022-10-22T05:23:31.715Z,1.63
2022-10-22T05:27:15.234Z,1.73
2022-10-22T05:30:58.565Z,1.83
2022-10-22T05:34:40.257Z,1.50
2022-10-22T05:38:24.357Z,1.93
2022-10-22T05:42:06.141Z,2.00
2022-10-22T05:45:47.838Z,1.97
2022-10-22T05:49:29.589Z,1.63
2022-10-22T05:53:12.017Z,2.03
2022-10-22T05:56:55.554Z,1.93
2022-10-22T06:00:37.340Z,2.03
2022-10-22T06:04:20.594Z,1.80
2022-10-22T06:08:02.591Z,2.60
2022-10-22T06:11:45.525Z,2.20
2022-10-22T06:15:27.430Z,2.37
2022-10-22T06:19:14.338Z,2.33
2022-10-22T06:22:56.044Z,2.30
2022-10-22T06:26:38.517Z,2.17
2022-10-22T06:30:20.590Z,2.30
2022-10-22T06:34:12.534Z,1.97
2022-10-22T06:37:54.287Z,2.10
2022-10-22T06:41:36.143Z,1.83
2022-10-22T06:45:17.993Z,1.93
2022-10-22T06:49:02.971Z,2.43
2022-10-22T06:52:44.670Z,2.43
2022-10-22T06:56:29.403Z,2.43
2022-10-22T07:00:11.798Z,2.23
2022-10-22T07:03:56.541Z,3.43
2022-10-22T07:07:38.266Z,2.20
2022-10-22T07:11:23.636Z,2.60
2022-10-22T07:15:05.924Z,2.13
2022-10-22T07:18:48.143Z,2.10
2022-10-22T07:22:29.935Z,2.53
2022-10-22T07:26:14.262Z,2.40
2022-10-22T07:29:56.257Z,2.97
2022-10-22T07:33:38.200Z,2.53
2022-10-22T07:37:21.999Z,2.23
2022-10-22T07:41:04.295Z,1.97
2022-10-22T07:44:46.043Z,1.83
2022-10-22T07:48:27.909Z,2.90
2022-10-22T07:52:11.254Z,2.50
2022-10-22T07:55:53.474Z,2.10
2022-10-22T07:59:35.179Z,2.90
2022-10-22T08:03:18.938Z,2.13
2022-10-22T08:07:01.312Z,3.03
2022-10-22T08:10:44.080Z,1.87
2022-10-22T08:14:26.202Z,2.53
2022-10-22T08:18:08.007Z,2.83
2022-10-22T08:21:49.785Z,5.97
2022-10-22T08:25:32.655Z,3.57
2022-10-22T08:29:14.653Z,2.47
2022-10-22T08:32:56.776Z,2.77
2022-10-22T08:36:38.819Z,3.07
2022-10-22T08:40:30.449Z,2.70
2022-10-22T08:44:50.508Z,3.13
2022-10-22T08:48:41.174Z,3.35
2022-10-22T08:52:22.958Z,2.30
2022-10-22T08:56:06.450Z,2.47
2022-10-22T09:00:00.841Z,6.10
2022-10-22T09:03:45.727Z,2.90
2022-10-22T09:07:27.573Z,2.60
2022-10-22T09:11:15.727Z,2.60
2022-10-22T09:14:57.621Z,3.13
2022-10-22T09:18:57.365Z,2.80
2022-10-22T09:23:21.182Z,4.35
2022-10-22T09:27:16.881Z,2.57
2022-10-22T09:34:40.816Z,2.50
2022-10-22T09:38:39.533Z,2.07
2022-10-22T09:42:22.801Z,1.87
2022-10-22T09:50:46.443Z,2.70
2022-10-22T09:54:34.022Z,3.17
2022-10-22T09:58:18.682Z,2.20
2022-10-22T10:02:19.742Z,3.07
2022-10-22T10:06:08.578Z,2.10
2022-10-22T10:09:51.610Z,1.77
2022-10-22T10:13:40.454Z,2.10
2022-10-22T10:17:37.065Z,1.77
2022-10-22T10:21:51.026Z,2.27
2022-10-22T10:25:35.921Z,2.73
2022-10-22T10:29:25.544Z,2.20
2022-10-22T10:33:13.069Z,2.88
2022-10-22T10:37:09.721Z,2.67
2022-10-22T10:40:54.043Z,1.85
2022-10-22T10:44:44.222Z,2.23
2022-10-22T10:48:44.163Z,1.80
2022-10-22T10:52:45.709Z,1.75
2022-10-22T10:56:34.432Z,3.03
2022-10-22T11:00:22.025Z,1.43
2022-10-22T11:04:22.105Z,2.70
2022-10-22T11:08:15.443Z,2.05
2022-10-22T11:12:05.856Z,1.63
2022-10-22T11:16:17.859Z,2.17
2022-10-22T11:20:16.987Z,1.50
2022-10-22T11:24:28.571Z,2.15
2022-10-22T11:28:13.154Z,1.80
2022-10-22T11:31:56.242Z,3.37
2022-10-22T11:35:42.281Z,1.80
2022-10-22T11:39:38.747Z,1.30
2022-10-22T11:43:31.778Z,1.90
2022-10-22T11:47:26.413Z,1.27
2022-10-22T11:51:32.892Z,1.53
2022-10-22T11:55:55.757Z,1.30
2022-10-22T11:59:48.129Z,1.13
2022-10-22T12:03:33.113Z,1.00
2022-10-22T12:07:48.857Z,1.27
2022-10-22T12:11:51.294Z,1.53
2022-10-22T12:15:33.151Z,1.20
2022-10-22T12:19:24.351Z,1.17
2022-10-22T12:23:09.508Z,1.80
2022-10-22T12:26:53.535Z,1.00
2022-10-22T12:30:35.639Z,1.10
2022-10-22T12:34:22.222Z,1.00
2022-10-22T12:38:13.563Z,1.33
2022-10-22T12:41:55.434Z,1.00
2022-10-22T12:45:38.499Z,1.20
2022-10-22T12:49:35.267Z,1.37
2022-10-22T12:53:26.989Z,1.40
2022-10-22T12:57:15.585Z,1.23
2022-10-22T13:01:01.917Z,1.40
2022-10-22T13:05:18.538Z,1.00
2022-10-22T13:09:00.564Z,1.40
2022-10-22T13:12:48.938Z,0.97
2022-10-22T13:16:32.101Z,1.37
2022-10-22T13:20:23.896Z,1.40
2022-10-22T13:24:24.208Z,1.70
2022-10-22T13:31:56.789Z,0.97
2022-10-22T13:35:38.798Z,1.63
2022-10-22T13:39:23.321Z,1.53
2022-10-22T13:43:05.057Z,1.30
2022-10-22T13:46:48.367Z,1.53
2022-10-22T13:50:30.182Z,1.40
2022-10-22T13:54:21.065Z,1.57
2022-10-22T13:58:14.731Z,1.40
2022-10-22T14:01:57.067Z,1.07
2022-10-22T14:05:38.954Z,1.30
2022-10-22T14:09:20.929Z,0.83
2022-10-22T14:13:03.057Z,1.37
2022-10-22T14:16:45.146Z,1.50
2022-10-22T14:20:30.594Z,1.20
2022-10-22T14:24:13.380Z,1.60
2022-10-22T14:27:56.546Z,2.00
2022-10-22T14:31:44.331Z,1.67
2022-10-22T14:35:26.962Z,1.50
2022-10-22T14:39:08.695Z,1.20
2022-10-22T14:42:50.501Z,1.60
2022-10-22T14:46:32.426Z,2.40
2022-10-22T14:50:16.997Z,1.33
2022-10-22T14:53:58.798Z,1.90
2022-10-22T14:57:41.003Z,1.60
2022-10-22T15:01:23.355Z,2.00
2022-10-22T15:05:05.791Z,2.60
2022-10-22T15:08:51.383Z,3.67
2022-10-22T15:12:33.647Z,1.50
2022-10-22T15:16:16.548Z,1.43
2022-10-22T15:20:01.113Z,1.43
2022-10-22T15:23:42.877Z,1.50
2022-10-22T15:27:25.350Z,2.13
2022-10-22T15:31:08.115Z,1.60
2022-10-22T15:34:53.171Z,1.67
2022-10-22T15:38:34.898Z,1.50
2022-10-22T15:42:16.738Z,1.60
2022-10-22T15:46:16.610Z,1.57
2022-10-22T15:49:58.843Z,1.98
2022-10-22T15:53:41.176Z,1.77
2022-10-22T15:57:22.981Z,2.73
2022-10-22T16:01:10.509Z,3.10
2022-10-22T16:04:52.571Z,1.90
2022-10-22T16:08:34.900Z,1.63
2022-10-22T16:12:17.381Z,2.40
2022-10-22T16:16:04.522Z,1.80
2022-10-22T16:19:48.061Z,1.50
2022-10-22T16:23:29.842Z,1.40
2022-10-22T16:27:11.609Z,2.07
2022-10-22T16:30:54.377Z,1.63
2022-10-22T16:34:36.213Z,2.37
2022-10-22T16:38:19.044Z,1.87
2022-10-22T16:42:00.825Z,1.77
2022-10-22T16:45:52.045Z,2.00
2022-10-22T16:49:33.786Z,2.03
2022-10-22T16:53:15.552Z,2.17
2022-10-22T16:56:57.353Z,1.93
2022-10-22T17:00:39.318Z,3.10
2022-10-22T17:04:22.442Z,2.00
2022-10-22T17:08:04.459Z,2.30
2022-10-22T17:11:46.476Z,2.37
2022-10-22T17:15:28.234Z,1.57
2022-10-22T17:19:14.191Z,1.97
2022-10-22T17:22:55.968Z,2.37
2022-10-22T17:26:37.906Z,2.30
2022-10-22T17:30:23.475Z,11.30
2022-10-22T17:34:11.726Z,2.23
2022-10-22T17:37:53.423Z,2.40
2022-10-22T17:41:37.441Z,2.43
2022-10-22T17:45:19.986Z,2.67
2022-10-22T17:49:12.273Z,3.00
2022-10-22T17:52:54.174Z,2.40
2022-10-22T17:56:37.113Z,2.07
2022-10-22T18:00:21.446Z,2.53
2022-10-22T18:04:08.448Z,2.33
2022-10-22T18:07:54.660Z,2.20
2022-10-22T18:11:37.372Z,2.80
2022-10-22T18:15:19.167Z,2.53
2022-10-22T18:19:01.679Z,2.13
2022-10-22T18:22:45.340Z,2.60
2022-10-22T18:26:27.342Z,2.63
2022-10-22T18:30:09.587Z,3.40
2022-10-22T18:33:51.837Z,2.40
2022-10-22T18:37:36.027Z,6.03
2022-10-22T18:41:18.153Z,3.30
2022-10-22T18:44:59.986Z,3.27
2022-10-22T18:48:42.038Z,4.67
2022-10-22T18:52:23.910Z,4.73
2022-10-22T18:56:07.442Z,4.10
2022-10-22T18:59:49.151Z,4.10
2022-10-22T19:03:31.005Z,3.57
2022-10-22T19:07:13.326Z,11.27
2022-10-22T19:10:55.283Z,4.63
2022-10-22T19:14:37.050Z,4.37
2022-10-22T19:18:19.624Z,3.73
2022-10-22T19:22:01.341Z,5.10
2022-10-22T19:25:43.091Z,4.10
2022-10-22T19:29:24.960Z,4.27
2022-10-22T19:33:09.623Z,3.50
2022-10-22T19:36:51.855Z,4.40
2022-10-22T19:40:33.817Z,6.00
2022-10-22T19:44:15.848Z,6.17
2022-10-22T19:47:57.576Z,4.83
2022-10-22T19:51:40.407Z,4.60
2022-10-22T19:55:22.193Z,4.23
2022-10-22T19:59:05.210Z,3.80
2022-10-22T20:02:47.006Z,3.90
2022-10-22T20:06:29.712Z,3.83
2022-10-22T20:10:12.044Z,4.40
2022-10-22T20:13:55.111Z,5.23
2022-10-22T20:17:37.001Z,4.63
2022-10-22T20:21:19.386Z,6.93
2022-10-22T20:25:01.129Z,5.00
2022-10-22T20:28:42.844Z,4.87
2022-10-22T20:32:27.036Z,4.47
2022-10-22T20:36:13.233Z,4.90
2022-10-22T20:39:55.139Z,4.47
2022-10-22T20:43:37.267Z,4.60
2022-10-22T20:47:19.103Z,5.03
2022-10-22T20:51:01.665Z,5.30
2022-10-22T20:54:45.721Z,4.43
2022-10-22T20:58:30.557Z,4.60
2022-10-22T21:02:12.873Z,3.90
2022-10-22T21:05:54.707Z,4.27
2022-10-22T21:09:37.208Z,5.10
2022-10-22T21:13:19.508Z,4.47
2022-10-22T21:17:01.575Z,4.20
2022-10-22T21:20:43.612Z,4.43
2022-10-22T21:24:26.358Z,4.07
2022-10-22T21:28:08.196Z,4.40
2022-10-22T21:31:50.002Z,4.43
2022-10-22T21:35:33.355Z,4.47
2022-10-22T21:39:15.125Z,4.63
2022-10-22T21:42:57.116Z,4.90
2022-10-22T21:46:38.888Z,5.40
2022-10-22T21:50:20.823Z,4.83
2022-10-22T21:54:02.710Z,5.37
2022-10-22T21:57:44.900Z,4.47
2022-10-22T22:01:27.245Z,5.27
2022-10-22T22:05:09.569Z,5.03
2022-10-22T22:08:53.274Z,5.57
2022-10-22T22:12:35.386Z,5.10
2022-10-22T22:16:28.543Z,6.53
2022-10-22T22:20:11.295Z,5.57
2022-10-22T22:23:53.086Z,6.13
2022-10-22T22:27:34.925Z,5.50
2022-10-22T22:31:24.905Z,5.33
2022-10-22T22:35:06.892Z,5.97
2022-10-22T22:38:48.729Z,5.57
2022-10-22T22:42:30.427Z,5.80
2022-10-22T22:46:12.715Z,5.87
2022-10-22T22:49:54.480Z,7.87
2022-10-22T22:53:36.413Z,7.83
2022-10-22T22:57:18.159Z,5.87
2022-10-22T23:01:25.785Z,5.60
2022-10-22T23:05:08.161Z,6.10
2022-10-22T23:13:11.367Z,4.63
2022-10-22T23:16:53.427Z,5.17
2022-10-22T23:20:38.078Z,5.27
2022-10-22T23:24:23.194Z,5.63
2022-10-22T23:28:05.053Z,4.93
2022-10-22T23:31:48.262Z,4.90
2022-10-22T23:35:30.190Z,5.60
2022-10-22T23:39:15.066Z,5.70
2022-10-22T23:42:56.812Z,4.53
2022-10-22T23:46:38.930Z,4.57
2022-10-22T23:50:20.710Z,4.07
2022-10-22T23:54:06.378Z,3.60
2022-10-22T23:57:48.277Z,4.07
